Time,TemperatureF,DewpointF,PressureIn,WindDirection,WindDirectionDegrees,WindSpeedMPH,WindSpeedGustMPH,Humidity,HourlyPrecipIn,Conditions,Clouds,dailyrainin,SoftwareType,DateUTC
2013-02-12 00:01:00,32.0,32.0,-100.00,WNW,287,1.0,4.0,100,-99.99,,,-99.99,,2013-02-12 05:01:00,
2013-02-12 00:11:00,31.0,31.0,-100.00,WNW,289,3.0,4.0,100,-99.99,,,-99.99,,2013-02-12 05:11:00,
2013-02-12 00:21:00,31.0,31.0,-100.00,NW,321,1.0,2.0,100,-99.99,,,-99.99,,2013-02-12 05:21:00,
2013-02-12 00:32:00,31.0,31.0,-100.00,WNW,295,1.0,4.0,100,-99.99,,,-99.99,,2013-02-12 05:32:00,
2013-02-12 00:42:00,31.0,31.0,-100.00,South,172,0.0,2.0,100,-99.99,,,-99.99,,2013-02-12 05:42:00,
2013-02-12 00:52:00,31.0,31.0,-100.00,WNW,289,1.0,2.0,100,-99.99,,,-99.99,,2013-02-12 05:52:00,
2013-02-12 01:02:00,31.0,31.0,-100.00,WSW,238,0.0,2.0,100,-99.99,,,-99.99,,2013-02-12 06:02:00,
2013-02-12 01:12:00,31.0,31.0,-100.00,SE,136,2.0,4.0,100,-99.99,,,-99.99,,2013-02-12 06:12:00,
2013-02-12 01:22:00,31.0,31.0,-100.00,SSE,157,2.0,4.0,100,-99.99,,,-99.99,,2013-02-12 06:22:00,
2013-02-12 01:32:00,31.0,31.0,-100.00,SSE,155,3.0,4.0,99,-99.99,,,-99.99,,2013-02-12 06:32:00,
2013-02-12 01:42:00,32.0,32.0,-100.00,South,183,2.0,4.0,100,-99.99,,,-99.99,,2013-02-12 06:42:00,
2013-02-12 01:51:00,32.0,32.0,-100.00,SSW,199,2.0,4.0,100,-99.99,,,-99.99,,2013-02-12 06:51:00,
2013-02-12 02:02:00,32.0,32.0,-100.00,WSW,258,1.0,4.0,100,-99.99,,,-99.99,,2013-02-12 07:02:00,
2013-02-12 02:12:00,32.0,32.0,-100.00,West,277,1.0,2.0,100,-99.99,,,-99.99,,2013-02-12 07:12:00,
2013-02-12 02:21:00,31.0,31.0,-100.00,WSW,244,1.0,2.0,100,-99.99,,,-99.99,,2013-02-12 07:21:00,
2013-02-12 02:32:00,31.0,31.0,-100.00,West,265,1.0,2.0,100,-99.99,,,-99.99,,2013-02-12 07:32:00,
2013-02-12 02:42:00,32.0,32.0,-100.00,WNW,298,1.0,2.0,99,-99.99,,,-99.99,,2013-02-12 07:42:00,
2013-02-12 02:51:00,32.0,32.0,-100.00,WNW,288,0.0,2.0,100,-99.99,,,-99.99,,2013-02-12 07:51:00,
2013-02-12 03:01:00,31.0,31.0,-100.00,West,276,2.0,4.0,100,-99.99,,,-99.99,,2013-02-12 08:01:00,
2013-02-12 03:11:00,31.0,31.0,-100.00,WNW,286,3.0,8.0,100,-99.99,,,-99.99,,2013-02-12 08:11:00,
2013-02-12 03:22:00,31.0,31.0,-100.00,West,281,2.0,4.0,100,-99.99,,,-99.99,,2013-02-12 08:22:00,
2013-02-12 03:32:00,31.0,31.0,-100.00,West,261,2.0,6.0,100,-99.99,,,-99.99,,2013-02-12 08:32:00,
2013-02-12 03:42:00,32.0,31.0,-100.00,West,276,2.0,4.0,99,-99.99,,,-99.99,,2013-02-12 08:42:00,
2013-02-12 03:52:00,32.0,31.0,-100.00,WSW,253,2.0,6.0,97,-99.99,,,-99.99,,2013-02-12 08:52:00,
2013-02-12 04:02:00,31.0,31.0,-100.00,West,262,2.0,4.0,97,-99.99,,,-99.99,,2013-02-12 09:02:00,
2013-02-12 04:11:00,31.0,31.0,-100.00,SSW,193,2.0,4.0,96,-99.99,,,-99.99,,2013-02-12 09:11:00,
2013-02-12 04:22:00,31.0,30.0,-100.00,West,261,1.0,2.0,96,-99.99,,,-99.99,,2013-02-12 09:22:00,
2013-02-12 04:32:00,31.0,30.0,-100.00,SSW,209,2.0,4.0,95,-99.99,,,-99.99,,2013-02-12 09:32:00,
2013-02-12 04:42:00,32.0,30.0,-100.00,West,272,2.0,6.0,93,-99.99,,,-99.99,,2013-02-12 09:42:00,
2013-02-12 04:51:00,31.0,30.0,-100.00,SSW,204,2.0,6.0,94,-99.99,,,-99.99,,2013-02-12 09:51:00,
2013-02-12 05:01:00,31.0,30.0,-100.00,WSW,252,2.0,6.0,92,-99.99,,,-99.99,,2013-02-12 10:01:00,
2013-02-12 05:11:00,32.0,30.0,-100.00,South,179,2.0,4.0,92,-99.99,,,-99.99,,2013-02-12 10:11:00,
2013-02-12 05:21:00,31.0,30.0,-100.00,WSW,248,2.0,4.0,94,-99.99,,,-99.99,,2013-02-12 10:21:00,
2013-02-12 05:32:00,31.0,30.0,-100.00,WSW,245,2.0,6.0,94,-99.99,,,-99.99,,2013-02-12 10:32:00,
2013-02-12 05:43:00,31.0,30.0,-100.00,WSW,250,3.0,6.0,94,-99.99,,,-99.99,,2013-02-12 10:43:00,
2013-02-12 05:51:00,31.0,30.0,-100.00,South,184,3.0,6.0,95,-99.99,,,-99.99,,2013-02-12 10:51:00,
2013-02-12 06:01:00,31.0,30.0,-100.00,SSW,201,2.0,4.0,95,-99.99,,,-99.99,,2013-02-12 11:01:00,
2013-02-12 06:11:00,31.0,30.0,-100.00,SSW,197,3.0,6.0,95,-99.99,,,-99.99,,2013-02-12 11:11:00,
2013-02-12 06:22:00,31.0,29.0,-100.00,SW,222,3.0,6.0,93,-99.99,,,-99.99,,2013-02-12 11:22:00,
2013-02-12 06:32:00,31.0,29.0,-100.00,SW,224,2.0,4.0,92,-99.99,,,-99.99,,2013-02-12 11:32:00,
2013-02-12 06:42:00,31.0,29.0,-100.00,South,172,2.0,6.0,92,-99.99,,,-99.99,,2013-02-12 11:42:00,
2013-02-12 06:52:00,31.0,29.0,-100.00,SW,219,2.0,8.0,90,-99.99,,,-99.99,,2013-02-12 11:52:00,
2013-02-12 07:02:00,31.0,29.0,-100.00,SW,219,2.0,8.0,90,-99.99,,,-99.99,,2013-02-12 12:02:00,
2013-02-12 07:11:00,31.0,29.0,-100.00,SSW,213,3.0,8.0,91,-99.99,,,-99.99,,2013-02-12 12:11:00,
2013-02-12 07:22:00,31.0,29.0,-100.00,SSW,203,4.0,8.0,91,-99.99,,,-99.99,,2013-02-12 12:22:00,
2013-02-12 07:32:00,31.0,29.0,-100.00,SW,223,3.0,6.0,91,-99.99,,,-99.99,,2013-02-12 12:32:00,
2013-02-12 07:42:00,31.0,29.0,-100.00,WSW,242,3.0,6.0,93,-99.99,,,-99.99,,2013-02-12 12:42:00,
2013-02-12 07:52:00,31.0,30.0,-100.00,SW,234,3.0,8.0,95,-99.99,,,-99.99,,2013-02-12 12:52:00,
2013-02-12 08:02:00,31.0,30.0,-100.00,SSE,167,2.0,6.0,95,-99.99,,,-99.99,,2013-02-12 13:02:00,
2013-02-12 08:11:00,31.0,30.0,-100.00,SW,233,3.0,6.0,96,-99.99,,,-99.99,,2013-02-12 13:11:00,
2013-02-12 08:22:00,31.0,30.0,-100.00,SSW,194,3.0,6.0,96,-99.99,,,-99.99,,2013-02-12 13:22:00,
2013-02-12 08:32:00,31.0,30.0,-100.00,South,176,3.0,6.0,96,-99.99,,,-99.99,,2013-02-12 13:32:00,
2013-02-12 08:42:00,31.0,30.0,-100.00,South,171,3.0,6.0,96,-99.99,,,-99.99,,2013-02-12 13:42:00,
2013-02-12 08:52:00,31.0,30.0,-100.00,SW,221,4.0,8.0,96,-99.99,,,-99.99,,2013-02-12 13:52:00,
2013-02-12 09:01:00,31.0,31.0,-100.00,SSW,209,2.0,4.0,97,-99.99,,,-99.99,,2013-02-12 14:01:00,
2013-02-12 09:12:00,31.0,31.0,-100.00,SSW,212,2.0,6.0,97,-99.99,,,-99.99,,2013-02-12 14:12:00,
2013-02-12 09:21:00,32.0,31.0,-100.00,South,183,2.0,4.0,97,-99.99,,,-99.99,,2013-02-12 14:21:00,
2013-02-12 09:32:00,32.0,31.0,-100.00,WSW,252,2.0,4.0,97,-99.99,,,-99.99,,2013-02-12 14:32:00,
2013-02-12 09:42:00,32.0,31.0,-100.00,WSW,244,2.0,6.0,97,-99.99,,,-99.99,,2013-02-12 14:42:00,
2013-02-12 09:52:00,32.0,32.0,-100.00,SSE,163,1.0,4.0,97,-99.99,,,-99.99,,2013-02-12 14:52:00,
2013-02-12 10:02:00,33.0,32.0,-100.00,South,172,0.0,2.0,97,-99.99,,,-99.99,,2013-02-12 15:02:00,
2013-02-12 10:11:00,33.0,32.0,-100.00,WSW,241,1.0,2.0,94,-99.99,,,-99.99,,2013-02-12 15:11:00,
2013-02-12 10:21:00,33.0,31.0,-100.00,West,267,4.0,10.0,93,-99.99,,,-99.99,,2013-02-12 15:21:00,
2013-02-12 10:32:00,33.0,31.0,-100.00,West,272,6.0,15.0,91,-99.99,,,-99.99,,2013-02-12 15:32:00,
2013-02-12 10:42:00,34.0,31.0,-100.00,WSW,240,8.0,13.0,87,-99.99,,,-99.99,,2013-02-12 15:42:00,
2013-02-12 10:52:00,34.0,31.0,-100.00,West,279,6.0,13.0,86,-99.99,,,-99.99,,2013-02-12 15:52:00,
2013-02-12 11:01:00,34.0,31.0,-100.00,West,278,5.0,10.0,87,-99.99,,,-99.99,,2013-02-12 16:01:00,
2013-02-12 11:11:00,34.0,31.0,-100.00,SSW,210,4.0,10.0,89,-99.99,,,-99.99,,2013-02-12 16:11:00,
2013-02-12 11:22:00,34.0,30.0,-100.00,SW,216,5.0,11.0,87,-99.99,,,-99.99,,2013-02-12 16:22:00,
2013-02-12 11:32:00,34.0,31.0,-100.00,WSW,245,4.0,10.0,88,-99.99,,,-99.99,,2013-02-12 16:32:00,
2013-02-12 11:42:00,34.0,31.0,-100.00,WSW,249,7.0,13.0,86,-99.99,,,-99.99,,2013-02-12 16:42:00,
2013-02-12 11:52:00,34.0,30.0,-100.00,SW,218,9.0,22.0,85,-99.99,,,-99.99,,2013-02-12 16:52:00,
2013-02-12 12:01:00,34.0,30.0,-100.00,SW,218,9.0,22.0,85,-99.99,,,-99.99,,2013-02-12 17:01:00,
2013-02-12 12:12:00,34.0,30.0,-100.00,WSW,247,8.0,19.0,85,-99.99,,,-99.99,,2013-02-12 17:12:00,
2013-02-12 12:21:00,34.0,30.0,-100.00,South,169,9.0,19.0,85,-99.99,,,-99.99,,2013-02-12 17:21:00,
2013-02-12 12:32:00,33.0,30.0,-100.00,SSW,213,5.0,11.0,86,-99.99,,,-99.99,,2013-02-12 17:32:00,
2013-02-12 12:42:00,33.0,30.0,-100.00,WNW,290,7.0,17.0,86,-99.99,,,-99.99,,2013-02-12 17:42:00,
2013-02-12 12:52:00,33.0,30.0,-100.00,West,274,5.0,13.0,86,-99.99,,,-99.99,,2013-02-12 17:52:00,
2013-02-12 13:02:00,33.0,29.0,-100.00,SSE,147,7.0,13.0,85,-99.99,,,-99.99,,2013-02-12 18:02:00,
2013-02-12 13:12:00,33.0,30.0,-100.00,WSW,245,6.0,11.0,85,-99.99,,,-99.99,,2013-02-12 18:12:00,
2013-02-12 13:23:00,33.0,30.0,-100.00,SE,125,6.0,15.0,85,-99.99,,,-99.99,,2013-02-12 18:23:00,
2013-02-12 13:32:00,34.0,30.0,-100.00,South,184,5.0,13.0,85,-99.99,,,-99.99,,2013-02-12 18:32:00,
2013-02-12 13:42:00,34.0,30.0,-100.00,South,184,5.0,13.0,85,-99.99,,,-99.99,,2013-02-12 18:42:00,
2013-02-12 13:51:00,34.0,29.0,-100.00,SE,145,6.0,15.0,84,-99.99,,,-99.99,,2013-02-12 18:51:00,
2013-02-12 14:02:00,34.0,29.0,-100.00,NW,307,6.0,15.0,84,-99.99,,,-99.99,,2013-02-12 19:02:00,
2013-02-12 14:11:00,33.0,29.0,-100.00,SSE,152,5.0,13.0,85,-99.99,,,-99.99,,2013-02-12 19:11:00,
2013-02-12 14:21:00,33.0,29.0,-100.00,West,273,5.0,11.0,83,-99.99,,,-99.99,,2013-02-12 19:21:00,
2013-02-12 14:32:00,33.0,29.0,-100.00,SW,236,3.0,8.0,85,-99.99,,,-99.99,,2013-02-12 19:32:00,
2013-02-12 14:42:00,34.0,29.0,-100.00,ESE,106,8.0,15.0,82,-99.99,,,-99.99,,2013-02-12 19:42:00,
2013-02-12 14:51:00,34.0,29.0,-100.00,West,276,7.0,15.0,81,-99.99,,,-99.99,,2013-02-12 19:51:00,
2013-02-12 15:01:00,34.0,28.0,-100.00,SW,235,7.0,20.0,79,-99.99,,,-99.99,,2013-02-12 20:01:00,
2013-02-12 15:11:00,34.0,28.0,-100.00,South,174,8.0,20.0,80,-99.99,,,-99.99,,2013-02-12 20:11:00,
2013-02-12 15:21:00,34.0,28.0,-100.00,SE,133,6.0,13.0,80,-99.99,,,-99.99,,2013-02-12 20:21:00,
2013-02-12 15:32:00,34.0,28.0,-100.00,SE,133,6.0,13.0,80,-99.99,,,-99.99,,2013-02-12 20:32:00,
2013-02-12 15:41:00,34.0,28.0,-100.00,SE,133,6.0,13.0,80,-99.99,,,-99.99,,2013-02-12 20:41:00,
2013-02-12 15:52:00,33.0,28.0,-100.00,WSW,241,7.0,13.0,81,-99.99,,,-99.99,,2013-02-12 20:52:00,
2013-02-12 16:02:00,33.0,28.0,-100.00,NW,318,6.0,15.0,81,-99.99,,,-99.99,,2013-02-12 21:02:00,
2013-02-12 16:11:00,33.0,28.0,-100.00,SSW,192,5.0,11.0,82,-99.99,,,-99.99,,2013-02-12 21:11:00,
2013-02-12 16:21:00,33.0,28.0,-100.00,ESE,109,4.0,11.0,82,-99.99,,,-99.99,,2013-02-12 21:21:00,
2013-02-12 16:32:00,33.0,29.0,-100.00,SSE,153,8.0,17.0,84,-99.99,,,-99.99,,2013-02-12 21:32:00,
2013-02-12 16:42:00,33.0,29.0,-100.00,East,87,8.0,19.0,86,-99.99,,,-99.99,,2013-02-12 21:42:00,
2013-02-12 16:51:00,33.0,29.0,-100.00,East,95,7.0,15.0,87,-99.99,,,-99.99,,2013-02-12 21:51:00,
2013-02-12 17:01:00,33.0,29.0,-100.00,South,170,7.0,13.0,84,-99.99,,,-99.99,,2013-02-12 22:01:00,
2013-02-12 17:12:00,33.0,29.0,-100.00,WSW,251,5.0,11.0,83,-99.99,,,-99.99,,2013-02-12 22:12:00,
2013-02-12 17:21:00,33.0,29.0,-100.00,SW,221,7.0,15.0,84,-99.99,,,-99.99,,2013-02-12 22:21:00,
2013-02-12 17:32:00,33.0,28.0,-100.00,ESE,122,7.0,15.0,84,-99.99,,,-99.99,,2013-02-12 22:32:00,
2013-02-12 17:42:00,33.0,28.0,-100.00,SW,222,5.0,13.0,84,-99.99,,,-99.99,,2013-02-12 22:42:00,
2013-02-12 17:52:00,33.0,28.0,-100.00,SE,125,5.0,10.0,84,-99.99,,,-99.99,,2013-02-12 22:52:00,
2013-02-12 18:01:00,32.0,29.0,-100.00,SSE,156,5.0,11.0,85,-99.99,,,-99.99,,2013-02-12 23:01:00,
2013-02-12 18:11:00,32.0,28.0,-100.00,ESE,115,9.0,20.0,84,-99.99,,,-99.99,,2013-02-12 23:11:00,
2013-02-12 18:21:00,32.0,28.0,-100.00,NW,307,7.0,15.0,85,-99.99,,,-99.99,,2013-02-12 23:21:00,
2013-02-12 18:32:00,32.0,28.0,-100.00,SW,217,5.0,13.0,85,-99.99,,,-99.99,,2013-02-12 23:32:00,
2013-02-12 18:42:00,32.0,28.0,-100.00,SSE,159,8.0,15.0,83,-99.99,,,-99.99,,2013-02-12 23:42:00,
2013-02-12 18:52:00,32.0,28.0,-100.00,ESE,107,7.0,13.0,84,-99.99,,,-99.99,,2013-02-12 23:52:00,
2013-02-12 19:02:00,32.0,28.0,-100.00,North,2,4.0,11.0,84,-99.99,,,-99.99,,2013-02-13 00:02:00,
2013-02-12 19:11:00,32.0,28.0,-100.00,SSE,163,6.0,15.0,83,-99.99,,,-99.99,,2013-02-13 00:11:00,
2013-02-12 19:21:00,32.0,28.0,-100.00,West,274,2.0,10.0,83,-99.99,,,-99.99,,2013-02-13 00:21:00,
2013-02-12 19:32:00,32.0,27.0,-100.00,South,191,0.0,0.0,83,-99.99,,,-99.99,,2013-02-13 00:32:00,
2013-02-12 19:42:00,32.0,27.0,-100.00,ESE,118,0.0,0.0,82,-99.99,,,-99.99,,2013-02-13 00:42:00,
2013-02-12 19:52:00,32.0,27.0,-100.00,SSE,163,0.0,0.0,82,-99.99,,,-99.99,,2013-02-13 00:52:00,
2013-02-12 20:01:00,32.0,27.0,-100.00,West,278,0.0,0.0,81,-99.99,,,-99.99,,2013-02-13 01:01:00,
2013-02-12 20:11:00,32.0,27.0,-100.00,South,188,0.0,0.0,82,-99.99,,,-99.99,,2013-02-13 01:11:00,
2013-02-12 20:21:00,31.0,27.0,-100.00,NW,304,0.0,0.0,82,-99.99,,,-99.99,,2013-02-13 01:21:00,
2013-02-12 20:32:00,31.0,27.0,-100.00,WSW,238,0.0,0.0,81,-99.99,,,-99.99,,2013-02-13 01:32:00,
2013-02-12 20:42:00,31.0,27.0,-100.00,WSW,238,0.0,0.0,81,-99.99,,,-99.99,,2013-02-13 01:42:00,
2013-02-12 20:52:00,31.0,26.0,-100.00,East,87,0.0,0.0,80,-99.99,,,-99.99,,2013-02-13 01:52:00,
2013-02-12 21:01:00,31.0,26.0,-100.00,East,87,0.0,0.0,80,-99.99,,,-99.99,,2013-02-13 02:01:00,
2013-02-12 21:11:00,31.0,26.0,-100.00,East,79,0.0,0.0,80,-99.99,,,-99.99,,2013-02-13 02:11:00,
2013-02-12 21:22:00,31.0,26.0,-100.00,South,190,0.0,0.0,81,-99.99,,,-99.99,,2013-02-13 02:22:00,
2013-02-12 21:32:00,31.0,26.0,-100.00,WSW,238,0.0,0.0,81,-99.99,,,-99.99,,2013-02-13 02:32:00,
2013-02-12 21:42:00,31.0,26.0,-100.00,SSW,197,0.0,0.0,82,-99.99,,,-99.99,,2013-02-13 02:42:00,
2013-02-12 21:52:00,31.0,26.0,-100.00,SSE,151,0.0,0.0,81,-99.99,,,-99.99,,2013-02-13 02:52:00,
2013-02-12 22:01:00,31.0,26.0,-100.00,SSW,200,0.0,0.0,81,-99.99,,,-99.99,,2013-02-13 03:01:00,
2013-02-12 22:12:00,31.0,25.0,-100.00,WSW,257,0.0,0.0,81,-99.99,,,-99.99,,2013-02-13 03:12:00,
2013-02-12 22:21:00,31.0,25.0,-100.00,WSW,253,0.0,0.0,81,-99.99,,,-99.99,,2013-02-13 03:21:00,
2013-02-12 22:32:00,30.0,25.0,-100.00,SW,217,0.0,0.0,81,-99.99,,,-99.99,,2013-02-13 03:32:00,
2013-02-12 22:42:00,30.0,25.0,-100.00,ESE,104,0.0,0.0,81,-99.99,,,-99.99,,2013-02-13 03:42:00,
2013-02-12 22:51:00,30.0,25.0,-100.00,WSW,251,0.0,0.0,82,-99.99,,,-99.99,,2013-02-13 03:51:00,
2013-02-12 23:01:00,30.0,25.0,-100.00,WNW,282,0.0,0.0,82,-99.99,,,-99.99,,2013-02-13 04:01:00,
2013-02-12 23:11:00,30.0,25.0,-100.00,SSW,206,0.0,0.0,82,-99.99,,,-99.99,,2013-02-13 04:11:00,
2013-02-12 23:21:00,30.0,25.0,-100.00,West,269,0.0,0.0,83,-99.99,,,-99.99,,2013-02-13 04:21:00,
2013-02-12 23:32:00,30.0,25.0,-100.00,ESE,117,0.0,0.0,82,-99.99,,,-99.99,,2013-02-13 04:32:00,
2013-02-12 23:42:00,29.0,25.0,-100.00,SE,146,0.0,0.0,84,-99.99,,,-99.99,,2013-02-13 04:42:00,
2013-02-12 23:51:00,29.0,25.0,-100.00,SSW,206,0.0,0.0,83,-99.99,,,-99.99,,2013-02-13 04:51:00,